Time;durP1;ratioP1;P1;durP2;ratioP2;P2;SDS_P1;SDS_P2;PMS_P1;PMS_P2;Temp;Humidity;BMP_temperature;BMP_pressure;BME280_temperature;BME280_humidity;BME280_pressure;Samples;Min_cycle;Max_cycle;Signal;HPM_P1;HPM_P2
2022/01/16 00:11:33;;;;;;;63.72;20.00;;;4.20;99.90;;;;;;6126617;23;20481;-92
2022/01/16 00:14:51;;;;;;;66.78;22.42;;;4.20;99.90;;;;;;6083787;23;20030;-92
2022/01/16 00:18:52;;;;;;;;;;;;;;;;;;;;;
2022/01/16 00:30:24;;;;;;;57.42;20.35;;;4.30;99.90;;;;;;6240054;22;20027;-92
2022/01/16 00:33:49;;;;;;;69.97;25.25;;;4.20;99.90;;;;;;6222807;23;20020;-93
2022/01/16 00:37:04;;;;;;;58.40;22.08;;;4.20;99.90;;;;;;6139930;23;20025;-93
2022/01/16 00:39:49;;;;;;;87.95;26.60;;;4.30;99.90;;;;;;6162430;23;20063;-92
2022/01/16 00:43:54;;;;;;;94.15;26.60;;;4.20;99.90;;;;;;6218203;23;20070;-93
2022/01/16 00:53:18;;;;;;;87.35;26.90;;;4.10;99.90;;;;;;6248279;22;20078;-92
2022/01/16 00:56:04;;;;;;;78.20;23.75;;;4.00;99.90;;;;;;6198479;23;20087;-92
2022/01/16 00:58:57;;;;;;;97.35;28.50;;;4.00;99.90;;;;;;6223677;23;20016;-93
2022/01/16 01:01:54;;;;;;;87.95;25.35;;;4.10;99.90;;;;;;6222073;23;20016;-93
2022/01/16 01:04:41;;;;;;;109.05;28.10;;;4.20;99.90;;;;;;6198825;23;20103;-94
2022/01/16 01:07:23;;;;;;;92.30;29.60;;;4.10;99.90;;;;;;6198108;23;20074;-92
2022/01/16 01:10:24;;;;;;;103.88;28.30;;;4.10;99.90;;;;;;6228088;23;20321;-92
2022/01/16 01:13:29;;;;;;;84.55;29.77;;;4.10;99.90;;;;;;6200056;23;20030;-91
2022/01/16 01:16:52;;;;;;;95.72;29.58;;;4.20;99.90;;;;;;6193258;23;20447;-92
2022/01/16 01:20:14;;;;;;;84.53;25.92;;;4.10;99.90;;;;;;6230345;23;20410;-91
2022/01/16 01:23:42;;;;;;;77.38;26.30;;;4.20;99.90;;;;;;6214719;23;20043;-94
2022/01/16 01:26:39;;;;;;;45.88;19.92;;;4.30;99.90;;;;;;6199360;23;20020;-94
2022/01/16 01:29:35;;;;;;;52.30;20.65;;;4.40;99.90;;;;;;6233395;23;20020;-93
2022/01/16 01:32:24;;;;;;;42.10;18.30;;;4.50;99.90;;;;;;6198608;23;20089;-92
2022/01/16 01:35:09;;;;;;;52.75;18.70;;;4.50;99.90;;;;;;6197014;23;20403;-92
2022/01/16 01:38:09;;;;;;;34.28;15.20;;;4.60;99.90;;;;;;6191426;23;20028;-92
2022/01/16 01:41:19;;;;;;;39.63;17.35;;;4.70;99.90;;;;;;6221158;23;20016;-92
2022/01/16 01:53:59;;;;;;;46.75;17.90;;;4.90;99.90;;;;;;6232075;22;20019;-92
2022/01/16 01:56:47;;;;;;;33.00;14.68;;;4.80;99.90;;;;;;6252086;22;20081;-93
2022/01/16 02:07:15;;;;;;;34.88;12.95;;;4.90;99.90;;;;;;6248933;23;20096;-93
2022/01/16 02:10:09;;;;;;;31.55;13.43;;;4.90;99.90;;;;;;6227850;22;20111;-92
2022/01/16 02:34:49;;;;;;;31.50;16.33;;;5.20;99.90;;;;;;6248053;23;20095;-91
2022/01/16 02:37:39;;;;;;;30.67;14.02;;;5.20;99.90;;;;;;6224668;23;20027;-92
2022/01/16 02:40:22;;;;;;;36.22;15.80;;;5.20;99.90;;;;;;6219127;23;20368;-89
2022/01/16 02:43:02;;;;;;;31.00;14.52;;;5.20;99.90;;;;;;6225706;23;20008;-91
2022/01/16 02:49:24;;;;;;;29.90;14.13;;;5.20;99.90;;;;;;6213656;23;20012;-93
2022/01/16 02:52:03;;;;;;;31.88;13.93;;;5.20;99.90;;;;;;6223217;23;20456;-94
2022/01/16 02:55:09;;;;;;;40.78;16.35;;;5.30;99.90;;;;;;6202091;23;20027;-93
2022/01/16 02:59:33;;;;;;;29.27;14.60;;;5.30;99.90;;;;;;6191950;23;20024;-95
2022/01/16 03:06:44;;;;;;;30.80;13.23;;;5.40;99.90;;;;;;6016431;23;20031;-94
2022/01/16 03:17:35;;;;;;;30.13;14.07;;;5.40;99.90;;;;;;6134687;23;20405;-94
2022/01/16 03:25:07;;;;;;;30.40;13.73;;;5.40;99.90;;;;;;6169636;23;20065;-94
2022/01/16 03:29:17;;;;;;;33.75;14.52;;;5.50;99.90;;;;;;6142175;23;20048;-92
2022/01/16 03:32:45;;;;;;;;;;;;;;;;;;;;;
2022/01/16 03:35:28;;;;;;;37.92;16.58;;;5.50;99.90;;;;;;6149064;23;20050;-93
2022/01/16 03:39:07;;;;;;;;;;;;;;;;;;;;;
2022/01/16 03:46:24;;;;;;;34.67;18.08;;;5.50;99.90;;;;;;6136121;23;20025;-93
2022/01/16 03:56:05;;;;;;;;;;;5.50;99.90;;;;;;6239023;22;20026;-91
2022/01/16 04:02:38;;;;;;;28.92;13.70;;;5.40;99.90;;;;;;6212224;23;20030;-92
2022/01/16 04:13:40;;;;;;;43.40;17.35;;;5.40;99.90;;;;;;6207099;22;20074;-92
2022/01/16 04:16:28;;;;;;;37.53;16.60;;;5.40;99.90;;;;;;6250922;22;20443;-92
2022/01/16 04:23:33;;;;;;;43.50;17.83;;;5.50;99.90;;;;;;6218988;22;20012;-92
2022/01/16 04:33:48;;;;;;;37.83;16.75;;;5.40;99.90;;;;;;6249779;22;20035;-93
2022/01/16 04:37:44;;;;;;;39.53;19.05;;;5.40;99.90;;;;;;6200079;23;20062;-93
2022/01/16 04:40:41;;;;;;;35.25;15.65;;;5.50;99.90;;;;;;6189661;23;20024;-95
2022/01/16 04:47:27;;;;;;;34.92;15.20;;;5.50;99.90;;;;;;6213516;23;20540;-93
2022/01/16 04:50:04;;;;;;;29.73;15.13;;;5.50;99.90;;;;;;6168435;23;20025;-93
2022/01/16 04:52:43;;;;;;;50.05;17.55;;;5.50;99.90;;;;;;6191240;23;20048;-92
2022/01/16 04:55:13;;;;;;;33.55;16.38;;;5.50;99.90;;;;;;6167208;23;20020;-95
2022/01/16 04:57:43;;;;;;;38.47;18.50;;;5.50;99.90;;;;;;6166901;23;20032;-93
2022/01/16 05:00:19;;;;;;;35.60;16.33;;;5.50;99.90;;;;;;6168021;23;20048;-94
2022/01/16 05:02:49;;;;;;;28.50;14.77;;;5.50;99.90;;;;;;6171109;23;20032;-93
2022/01/16 05:05:27;;;;;;;37.58;15.48;;;5.50;99.90;;;;;;6199493;23;20008;-92
2022/01/16 05:12:36;;;;;;;35.35;13.82;;;5.60;99.90;;;;;;6010335;23;20051;-91
2022/01/16 05:18:00;;;;;;;28.38;13.73;;;5.50;99.90;;;;;;6043779;23;20315;-93
2022/01/16 05:20:30;;;;;;;36.73;12.97;;;5.50;99.90;;;;;;6019173;23;20111;-93
2022/01/16 05:23:25;;;;;;;25.02;13.30;;;5.50;99.90;;;;;;6040511;23;20606;-93
2022/01/16 05:25:59;;;;;;;28.60;13.50;;;5.50;99.90;;;;;;6048043;23;20023;-93
2022/01/16 05:28:34;;;;;;;35.97;14.70;;;5.50;99.90;;;;;;6081264;23;20022;-94
2022/01/16 05:31:07;;;;;;;33.17;13.85;;;5.50;99.90;;;;;;6216147;23;20024;-93
2022/01/16 05:33:57;;;;;;;31.75;13.18;;;5.60;99.90;;;;;;6199346;23;20040;-93
2022/01/16 05:37:06;;;;;;;24.88;11.48;;;5.60;99.90;;;;;;6221174;23;20020;-95
2022/01/16 05:39:45;;;;;;;25.95;13.45;;;5.60;99.90;;;;;;6221854;23;20016;-92
2022/01/16 05:46:28;;;;;;;33.10;11.98;;;5.70;99.90;;;;;;6223259;23;20116;-92
2022/01/16 05:49:12;;;;;;;28.58;14.63;;;5.70;99.90;;;;;;6170792;23;20016;-93
2022/01/16 05:52:07;;;;;;;24.75;13.48;;;5.70;99.90;;;;;;6200388;23;20041;-92
2022/01/16 05:55:49;;;;;;;;;;;;;;;;;;;;;
2022/01/16 05:59:07;;;;;;;26.92;12.07;;;5.70;99.90;;;;;;6084256;23;20221;-94
2022/01/16 06:01:59;;;;;;;28.63;12.93;;;5.70;99.90;;;;;;6052997;23;20554;-93
2022/01/16 06:05:02;;;;;;;29.10;12.15;;;5.70;99.90;;;;;;6098386;23;20354;-94
2022/01/16 06:08:38;;;;;;;26.17;11.73;;;5.60;99.90;;;;;;6079951;23;20030;-92
2022/01/16 06:11:25;;;;;;;24.30;10.88;;;5.60;99.90;;;;;;6043808;23;20437;-93
2022/01/16 06:13:58;;;;;;;26.45;12.02;;;5.60;99.90;;;;;;6099917;23;20446;-93
2022/01/16 06:16:30;;;;;;;25.67;11.85;;;5.70;99.90;;;;;;6075518;23;20208;-93
2022/01/16 06:19:01;;;;;;;28.50;13.18;;;5.60;99.90;;;;;;6075313;23;20449;-93
2022/01/16 06:21:37;;;;;;;24.77;12.02;;;5.60;99.90;;;;;;6075538;23;20036;-93
2022/01/16 06:24:05;;;;;;;33.47;12.93;;;5.70;99.90;;;;;;6101411;23;20030;-93
2022/01/16 06:26:35;;;;;;;28.52;12.50;;;5.80;99.90;;;;;;6099199;23;20045;-92
2022/01/16 06:29:06;;;;;;;26.55;12.38;;;5.70;99.90;;;;;;6075712;23;20041;-93
2022/01/16 06:31:36;;;;;;;27.58;11.93;;;5.80;99.90;;;;;;6075787;23;20028;-91
2022/01/16 06:34:06;;;;;;;17.45;10.38;;;5.80;99.90;;;;;;6051334;23;20033;-92
2022/01/16 06:36:35;;;;;;;29.10;13.60;;;5.70;99.90;;;;;;6179048;23;20352;-92
2022/01/16 06:39:08;;;;;;;27.05;12.32;;;5.80;99.90;;;;;;6169902;23;20429;-92
2022/01/16 06:41:42;;;;;;;25.92;11.65;;;5.90;99.90;;;;;;6178953;23;20017;-91
2022/01/16 06:44:31;;;;;;;20.27;10.07;;;5.80;99.90;;;;;;6220147;23;20017;-92
2022/01/16 06:47:02;;;;;;;25.08;11.23;;;5.70;99.90;;;;;;6195429;23;20043;-93
2022/01/16 06:50:05;;;;;;;24.08;11.10;;;5.80;99.90;;;;;;6197701;23;20027;-93
2022/01/16 06:52:35;;;;;;;23.00;10.23;;;5.80;99.90;;;;;;6220140;23;20443;-93
2022/01/16 06:55:03;;;;;;;23.88;10.95;;;5.80;99.90;;;;;;6192620;23;20012;-91
2022/01/16 06:57:30;;;;;;;19.88;9.07;;;5.80;99.90;;;;;;6219173;23;20020;-91
2022/01/16 06:59:57;;;;;;;21.60;9.95;;;5.90;99.90;;;;;;6168603;23;20428;-91
2022/01/16 07:02:24;;;;;;;29.25;9.07;;;5.90;99.90;;;;;;6193342;23;20503;-91
2022/01/16 07:04:54;;;;;;;27.17;9.98;;;5.90;99.90;;;;;;6192502;23;20440;-91
2022/01/16 07:07:22;;;;;;;29.35;10.30;;;5.90;99.90;;;;;;6200005;23;20004;-91
2022/01/16 07:09:51;;;;;;;20.42;9.95;;;5.90;99.90;;;;;;6197231;23;20024;-95
2022/01/16 07:12:25;;;;;;;23.42;7.75;;;5.90;99.90;;;;;;6170338;23;20031;-92
2022/01/16 07:14:55;;;;;;;21.80;9.95;;;5.90;99.90;;;;;;6192261;23;20025;-93
2022/01/16 07:17:27;;;;;;;22.77;9.00;;;5.90;99.90;;;;;;6192753;23;20352;-93
2022/01/16 07:20:15;;;;;;;18.80;8.25;;;5.90;99.90;;;;;;6196005;23;20009;-94
2022/01/16 07:22:56;;;;;;;15.45;7.35;;;6.00;99.90;;;;;;6191044;23;20047;-93
2022/01/16 07:25:38;;;;;;;15.25;8.35;;;6.00;99.90;;;;;;6192026;23;20016;-94
2022/01/16 07:29:01;;;;;;;21.70;7.88;;;5.90;99.90;;;;;;6168883;23;20016;-93
2022/01/16 07:32:34;;;;;;;17.25;7.10;;;5.90;99.90;;;;;;6014098;23;20031;-93
2022/01/16 07:35:43;;;;;;;18.58;6.30;;;6.00;99.90;;;;;;5989700;23;20075;-94
2022/01/16 07:48:33;;;;;;;12.63;5.78;;;6.10;99.90;;;;;;6220624;23;20082;-93
2022/01/16 07:52:07;;;;;;;16.90;6.00;;;6.10;99.90;;;;;;6127240;23;20033;-93
2022/01/16 07:56:20;;;;;;;;;;;;;;;;;;;;;
2022/01/16 07:59:06;;;;;;;15.07;5.93;;;6.10;99.90;;;;;;6133929;23;20037;-92
2022/01/16 08:06:42;;;;;;;10.43;4.72;;;6.20;99.90;;;;;;6156000;23;20021;-94
2022/01/16 08:30:16;;;;;;;20.52;4.93;;;6.20;99.90;;;;;;6194846;23;20062;-92
2022/01/16 08:32:54;;;;;;;11.23;3.85;;;6.30;99.90;;;;;;6136643;23;20456;-93
2022/01/16 08:39:44;;;;;;;7.63;3.22;;;6.20;99.90;;;;;;6037510;23;20031;-93
2022/01/16 08:42:25;;;;;;;19.20;4.30;;;6.30;99.90;;;;;;6160662;23;20021;-93
2022/01/16 08:45:05;;;;;;;9.68;4.80;;;6.30;99.90;;;;;;6161301;23;20017;-94
2022/01/16 21:06:32;;;;;;;13.45;1.63;;;6.90;99.90;;;;;;6247941;22;20024;-90
2022/01/16 21:09:00;;;;;;;10.57;2.63;;;6.90;99.90;;;;;;6234321;22;20016;-92
2022/01/16 21:11:30;;;;;;;4.70;1.20;;;6.90;99.90;;;;;;6226446;22;20042;-93
2022/01/16 21:14:09;;;;;;;7.18;1.30;;;6.90;99.90;;;;;;6227385;22;20024;-92
2022/01/16 21:16:38;;;;;;;10.80;1.73;;;6.90;99.90;;;;;;6226090;22;20015;-92
2022/01/16 21:19:09;;;;;;;5.88;1.77;;;6.90;99.90;;;;;;6249885;22;20023;-92
2022/01/16 21:21:39;;;;;;;15.52;2.05;;;6.90;99.90;;;;;;6250376;22;20035;-93
2022/01/16 21:24:09;;;;;;;7.20;1.17;;;6.90;99.90;;;;;;6226426;22;20106;-91
2022/01/16 21:27:05;;;;;;;16.05;1.85;;;6.90;99.90;;;;;;6261861;22;20023;-95
2022/01/16 21:30:12;;;;;;;6.90;0.98;;;6.80;99.90;;;;;;6221452;23;20031;-94
2022/01/16 21:32:39;;;;;;;13.25;2.20;;;6.90;99.90;;;;;;6223377;23;20336;-91
2022/01/16 21:35:14;;;;;;;17.40;1.73;;;6.80;99.90;;;;;;6220602;23;20020;-94
2022/01/16 21:37:49;;;;;;;17.38;1.63;;;6.80;99.90;;;;;;6196280;23;20044;-93
2022/01/16 21:43:50;;;;;;;17.23;1.92;;;6.80;99.90;;;;;;6190788;23;20067;-95
2022/01/16 21:46:32;;;;;;;9.40;1.35;;;6.80;99.90;;;;;;6192508;23;20024;-93
2022/01/16 21:48:59;;;;;;;15.23;2.00;;;6.80;99.90;;;;;;6190163;23;20028;-92
2022/01/16 21:51:29;;;;;;;16.27;1.35;;;6.80;99.90;;;;;;6201703;22;20016;-93
2022/01/16 21:53:56;;;;;;;13.77;2.60;;;6.80;99.90;;;;;;6165203;23;20112;-93
2022/01/16 21:56:25;;;;;;;13.98;1.38;;;6.80;99.90;;;;;;6190026;23;20148;-93
2022/01/16 21:58:52;;;;;;;8.35;1.50;;;6.80;99.90;;;;;;6189516;23;20026;-91
2022/01/16 22:01:21;;;;;;;11.40;2.13;;;6.80;99.90;;;;;;6164778;23;20039;-92
2022/01/16 22:03:48;;;;;;;14.07;1.33;;;6.80;99.90;;;;;;6189889;23;20059;-93
2022/01/16 22:06:15;;;;;;;8.32;1.58;;;6.80;99.90;;;;;;6189875;23;20112;-93
2022/01/16 22:08:42;;;;;;;7.18;1.30;;;6.80;99.90;;;;;;6164803;23;20096;-92
2022/01/16 22:11:09;;;;;;;11.52;1.15;;;6.70;99.90;;;;;;6165195;23;20025;-92
2022/01/16 22:13:37;;;;;;;5.35;0.95;;;6.80;99.90;;;;;;6189376;23;20020;-94
2022/01/16 22:16:08;;;;;;;5.03;1.20;;;6.70;99.90;;;;;;6189967;23;20099;-94
2022/01/16 22:18:35;;;;;;;5.68;0.93;;;6.80;99.90;;;;;;6189735;23;20020;-91
2022/01/16 22:21:02;;;;;;;13.10;1.45;;;6.70;99.90;;;;;;6164729;23;20017;-93
2022/01/16 22:23:32;;;;;;;10.38;1.55;;;6.70;99.90;;;;;;6165027;23;20016;-92
2022/01/16 22:25:59;;;;;;;8.52;0.70;;;6.80;99.90;;;;;;6164930;23;20021;-94
2022/01/16 22:28:26;;;;;;;10.73;2.55;;;6.80;99.90;;;;;;6164475;23;20016;-92
2022/01/16 22:30:56;;;;;;;7.50;0.90;;;6.80;99.90;;;;;;6165402;23;20021;-94
2022/01/16 22:33:25;;;;;;;17.05;2.13;;;6.80;99.90;;;;;;6165271;23;20380;-92
2022/01/16 22:35:53;;;;;;;18.52;2.72;;;6.80;99.90;;;;;;6165269;23;20016;-93
2022/01/16 22:38:20;;;;;;;16.70;1.40;;;6.80;99.90;;;;;;6189498;23;20024;-90
2022/01/16 22:40:48;;;;;;;6.70;1.25;;;6.80;99.90;;;;;;6200401;23;20016;-92
2022/01/16 22:43:16;;;;;;;10.65;1.35;;;6.80;99.90;;;;;;6165659;23;20353;-91
2022/01/16 22:45:44;;;;;;;20.52;1.67;;;6.80;99.90;;;;;;6191756;23;20021;-91
2022/01/16 22:48:11;;;;;;;8.57;2.25;;;6.80;99.90;;;;;;6168263;23;20091;-91
2022/01/16 22:50:38;;;;;;;8.10;1.30;;;6.80;99.90;;;;;;6192712;23;20424;-91
2022/01/16 22:53:05;;;;;;;12.25;1.45;;;6.80;99.90;;;;;;6175530;23;20416;-91
2022/01/16 22:55:31;;;;;;;8.90;2.13;;;6.80;99.90;;;;;;6170987;23;20044;-91
2022/01/16 22:58:02;;;;;;;8.38;1.08;;;6.70;99.90;;;;;;6170381;23;20070;-90
2022/01/16 23:00:35;;;;;;;6.45;1.48;;;6.70;99.90;;;;;;6179237;23;20025;-92
2022/01/16 23:03:02;;;;;;;8.25;1.52;;;6.70;99.90;;;;;;6170187;23;20156;-90
2022/01/16 23:05:29;;;;;;;10.43;1.00;;;6.70;99.90;;;;;;6197434;22;20065;-91
2022/01/16 23:07:56;;;;;;;6.97;1.35;;;6.70;99.90;;;;;;6172539;23;20024;-91
2022/01/16 23:10:23;;;;;;;8.77;1.10;;;6.70;99.90;;;;;;6166513;23;20107;-91
2022/01/16 23:12:50;;;;;;;13.73;1.80;;;6.70;99.90;;;;;;6191345;23;20123;-93
2022/01/16 23:15:17;;;;;;;4.85;1.08;;;6.70;99.90;;;;;;6166408;23;20021;-90
2022/01/16 23:17:44;;;;;;;6.85;1.33;;;6.70;99.90;;;;;;6166524;23;20094;-91
2022/01/16 23:20:12;;;;;;;5.72;1.45;;;6.70;99.90;;;;;;6166409;23;20101;-91
2022/01/16 23:22:39;;;;;;;7.80;1.25;;;6.70;99.90;;;;;;6166212;23;20016;-90
2022/01/16 23:25:06;;;;;;;10.55;1.83;;;6.80;99.90;;;;;;6192394;23;20028;-91
2022/01/16 23:27:34;;;;;;;6.95;1.38;;;6.70;99.90;;;;;;6166368;23;20514;-90
2022/01/16 23:30:03;;;;;;;8.95;1.25;;;6.70;99.90;;;;;;6190945;23;20020;-90
2022/01/16 23:32:30;;;;;;;9.73;1.60;;;6.70;99.90;;;;;;6166317;23;20024;-91
2022/01/16 23:34:57;;;;;;;13.13;2.55;;;6.70;99.90;;;;;;6191237;23;20071;-89
2022/01/16 23:37:24;;;;;;;9.90;2.00;;;6.70;99.90;;;;;;6191422;23;20028;-90
2022/01/16 23:39:54;;;;;;;14.25;1.70;;;6.70;99.90;;;;;;6191140;23;20020;-91
2022/01/16 23:42:21;;;;;;;12.35;2.50;;;6.70;99.90;;;;;;6216068;23;20051;-92
2022/01/16 23:44:48;;;;;;;10.90;1.33;;;6.70;99.90;;;;;;6220016;23;20020;-90
2022/01/16 23:47:15;;;;;;;6.97;1.00;;;6.60;99.90;;;;;;6221059;23;20017;-91
2022/01/16 23:49:42;;;;;;;13.77;2.63;;;6.60;99.90;;;;;;6196161;23;20119;-91
2022/01/16 23:52:09;;;;;;;11.73;2.00;;;6.60;99.90;;;;;;6196053;23;20031;-91
2022/01/16 23:54:36;;;;;;;12.32;2.30;;;6.60;99.90;;;;;;6229726;22;20008;-91
2022/01/16 23:57:03;;;;;;;7.47;1.33;;;6.60;99.90;;;;;;6249146;22;20090;-90
2022/01/16 23:59:30;;;;;;;7.55;1.55;;;6.50;99.90;;;;;;6221010;23;20092;-91
